Nevis, MN (56467)

8:27 AM CDT on March 29, 2015 (GMT -0500)
Park Rapids Municipal | | Change Station
CLOSE
Current Station
Airport
Location: Park Rapids,
Elevation: 1440 ft
Nearby Weather Stations

Elev 1440 ft 46.90 °N, 95.07 °W | Updated 12 minutes ago

Overcast
Overcast
39 °F
Feels Like 30 °F
N
16
Wind Variable Wind from WNW

Today
High -- | Low -- °F
--% Chance of Precip.
Yesterday
High -- | Low -- °F
Precip. -- in
7:04 AM 7:44 PM
Waxing Gibbous, 71% visible
Pressure 29.47 in
Visibility 3.0 miles
Clouds Mostly Cloudy 600 ft
Overcast 1100 ft
Windchill 30 °F
Dew Point 37 °F
Humidity 93%
Rainfall 0.17 in
Snow Depth Not available.
UV 0 out of 12
Pollen .90 out of 12
Air Quality Not available.
Flu Activity Not available.
SPECI KPKD 291315Z AUTO 29014KT 3SM -RA BR BKN006 OVC011 04/03 A2947 RMK AO2 P0006 T00390028

More Conditions Fewer Conditions

Pressure 29.47 in
Visibility 3.0 miles
Clouds Mostly Cloudy 600 ft
Overcast 1100 ft
Windchill 30 °F
Dew Point 37 °F
Humidity 93%
Rainfall 0.17 in
Snow Depth Not available.
UV 0 out of 12
Pollen .90 out of 12
Air Quality Not available.
Flu Activity Not available.
SPECI KPKD 291315Z AUTO 29014KT 3SM -RA BR BKN006 OVC011 04/03 A2947 RMK AO2 P0006 T00390028

More Conditions Fewer Conditions

10-Day Weather Forecast

Almanac

Astronomy

Mar. 29, 2015 Rise Set
Actual Time
Civil Twilight
Nautical Twilight
Astronomical Twilight
Moon
Length of Visible Light
Length of Day
Tomorrow will be .
, % of the Moon is Illuminated

Today's Extremes

State Highs State Lows

Community

WunderPhotos

Upload Photos

1,809,233 photos uploaded!

WunderBlogs® & News

Nearby

Air Quality

  Air Quality AQ Index Pollutant
Not available.

Snow Depth

Station Depth Elevation

Earthquake Activity

City Distance Mag. Time & Date
Minimum magnitude displayed is 2.5.

Coastal Water Temperatures

Place Temperature

Stations

Nearby Weather Stations

Station Location Temp. Windchill Dew Point Humidity Wind Precip. Elev Updated Type